ADDS METAR Data INFO
IDs: Format: Raw Decoded Include TAF

Data at: 0020 UTC 11 Dec 2017

PATQ 110016Z AUTO 07025KT 1/4SM +SN FZFG OVC010 M17/M19 A3008 RMK AO2 PK WND 07030/2358 P0000 FZRANO TSNO
PATQ 102356Z AUTO 07024KT 1/2SM SN FZFG BKN010 BKN016 OVC021 M17/M18 A3009 RMK AO2 PK WND 06030/2354 SLP197 P0000 60000 T11671183 11161 21172 58008 FZRANO TSNO
PATQ 102340Z AUTO 07025KT 3/4SM -SN BR BKN010 BKN016 OVC023 M17/M18 A3009 RMK AO2 PK WND 07029/2321 P0000 FZRANO TSNO
PATQ 102326Z AUTO 06024KT 1/2SM -SN FZFG OVC010 M17/M18 A3010 RMK AO2 PK WND 07029/2321 P0000 FZRANO TSNO
PATQ 102256Z AUTO 06023KT 3/4SM -SN BR BKN012 OVC041 M17/M19 A3011 RMK AO2 PK WND 06027/2248 SLP204 P0000 T11671189 FZRANO TSNO
PATQ 102156Z AUTO 06022KT 3/4SM -SN BR SCT014 OVC039 M17/M19 A3011 RMK AO2 PK WND 06026/2128 SLP204 P0000 T11721189 FZRANO TSNO
PATQ 102142Z AUTO 06018KT 1SM -SN BR OVC014 M17/M19 A3012 RMK AO2 PK WND 06026/2128 P0000 FZRANO TSNO
PATQ 102103Z AUTO 06022KT 1 3/4SM -SN BR SCT013 BKN019 OVC045 M17/M19 A3012 RMK AO2 P0000 FZRANO TSNO
PATQ 102056Z AUTO 07022KT 1 1/2SM -SN BR BKN013 BKN019 OVC045 M17/M18 A3012 RMK AO2 PK WND 07026/2020 SLP206 P0000 60000 T11671183 53001 FZRANO TSNO
PATQ 102052Z AUTO 07022KT 1 1/2SM -SN BR BKN013 OVC045 M17/M18 A3011 RMK AO2 PK WND 07026/2020 P0000 FZRANO TSNO
PATQ 102027Z AUTO 08022KT 2SM -SN BR OVC013 M16/M18 A3011 RMK AO2 PK WND 07026/2020 P0000 FZRANO TSNO
PATQ 102019Z AUTO 07022KT 1 3/4SM -SN BR OVC013 M16/M18 A3011 RMK AO2 P0000 FZRANO TSNO
PATQ 101956Z AUTO 07020KT 2 1/2SM -SN BR BKN013 OVC022 M16/M18 A3011 RMK AO2 SLP204 P0000 T11611178 FZRANO TSNO
PATQ 101948Z AUTO 06019KT 2 1/2SM -SN BR SCT013 OVC022 M16/M18 A3012 RMK AO2 P0000 FZRANO TSNO
PATQ 101856Z AUTO 06020KT 2 1/2SM -SN BR OVC013 M16/M18 A3011 RMK AO2 SLP204 P0000 T11611183 FZRANO TSNO
PATQ 101829Z AUTO 06019KT 2 1/2SM -SN BR OVC013 M17/M18 A3012 RMK AO2 VIS 2V3 P0000 FZRANO TSNO
PATQ 101756Z AUTO 05017KT 4SM -SN BR OVC013 M17/M18 A3012 RMK AO2 SLP207 P0000 60000 T11671183 11167 21194 57000 FZRANO TSNO
PATQ 101725Z AUTO 05017KT 4SM -SN BR BKN013 OVC044 M17/M19 A3012 RMK AO2 P0000 FZRANO TSNO
PATQ 101656Z AUTO 05016KT 4SM -SN BR SCT013 OVC044 M17/M19 A3012 RMK AO2 SLP206 P0000 T11721194 FZRANO TSNO
PATQ 101556Z AUTO 05016KT 4SM -SN BR BKN013 OVC042 M18/M20 A3012 RMK AO2 SLP207 P0000 T11781200 FZRANO TSNO
PATQ 101535Z AUTO 05018KT 4SM -SN BR FEW013 OVC042 M18/M20 A3012 RMK AO2 P0000 FZRANO TSNO
PATQ 101512Z AUTO 05017KT 3SM -SN BR BKN013 OVC044 M18/M20 A3012 RMK AO2 P0000 FZRANO TSNO
PATQ 101505Z AUTO 05017KT 2 1/2SM -SN BR OVC013 M18/M20 A3012 RMK AO2 P0000 FZRANO TSNO
PATQ 101456Z AUTO 05017KT 3SM -SN BR OVC013 M18/M20 A3012 RMK AO2 SLP207 P0000 60000 T11831200 56007 FZRANO TSNO
PATQ 101356Z AUTO 05016KT 4SM -SN BR OVC013 M19/M21 A3012 RMK AO2 SLP208 P0000 T11891206 FZRANO TSNO
PATQ 101256Z AUTO 05015KT 7SM -SN OVC013 M19/M21 A3013 RMK AO2 SNB55 SLP210 P0000 T11891211 FZRANO TSNO
PATQ 101156Z AUTO 04015KT 4SM BR OVC013 M19/M22 A3014 RMK AO2 SNE53 SLP213 P0000 60000 T11941217 11178 21194 53005 FZRANO TSNO
PATQ 101056Z AUTO 04015KT 3SM -SN BR OVC013 M19/M21 A3014 RMK AO2 SLP212 P0000 T11941211 FZRANO TSNO
PATQ 100956Z AUTO 05014KT 4SM -SN BR OVC013 M19/M21 A3013 RMK AO2 SLP210 P0000 T11891211 FZRANO TSNO
PATQ 100856Z AUTO 04013KT 5SM -SN BR OVC013 M19/M21 A3013 RMK AO2 SLP209 P0000 60000 T11891206 411721206 53002 FZRANO TSNO
PATQ 100845Z AUTO 05013KT 5SM -SN BR OVC013 M19/M21 A3012 RMK AO2 P0000 FZRANO TSNO
PATQ 100756Z AUTO 04014KT 8SM -SN BKN015 OVC085 M18/M21 A3012 RMK AO2 SLP207 P0000 T11831206 FZRANO TSNO
PATQ 100656Z AUTO 04011KT 9SM -SN OVC085 M18/M21 A3012 RMK AO2 SLP207 P0000 T11831206 FZRANO TSNO
PATQ 100556Z AUTO 04012KT 9SM -SN OVC085 M18/M19 A3012 RMK AO2 SLP207 P0000 60000 T11781194 11172 21178 58001 FZRANO TSNO
PATQ 100456Z AUTO 04015KT 7SM -SN BKN090 M18/M19 A3013 RMK AO2 SLP210 P0000 T11781194 FZRANO TSNO
PATQ 100443Z AUTO 04013KT 6SM -SN BR FEW025 BKN090 M18/M19 A3013 RMK AO2 P0000 FZRANO TSNO
PATQ 100356Z AUTO 03012KT 5SM -SN BR OVC025 M17/M19 A3013 RMK AO2 SLP210 P0000 T11721189 FZRANO TSNO
PATQ 100256Z AUTO 05013KT 4SM -SN BR OVC029 M18/M19 A3012 RMK AO2 SLP208 P0000 60000 T11781194 55000 FZRANO TSNO
PATQ 100240Z AUTO 05014KT 4SM -SN BR OVC029 M18/M19 A3012 RMK AO2 P0000 FZRANO TSNO
PATQ 100156Z AUTO 05015KT 3SM -SN BR OVC037 M18/M19 A3012 RMK AO2 SLP206 P0000 T11781194 FZRANO TSNO
PATQ 100056Z AUTO 05014KT 4SM -SN BR BKN034 OVC042 M18/M20 A3012 RMK AO2 SLP207 P0000 T11781200 FZRANO TSNO
PATQ 100014Z AUTO 04015KT 4SM -SN BR FEW025 BKN032 OVC090 M18/M20 A3012 RMK AO2 P0000 FZRANO TSNO
PATQ 092356Z AUTO 04016KT 4SM -SN BR OVC027 M18/M20 A3012 RMK AO2 SLP208 P0000 60000 T11781200 11178 21189 50000 FZRANO TSNO
PATQ 092342Z AUTO 04017KT 3SM -SN BR BKN027 OVC038 M18/M20 A3012 RMK AO2 P0000 FZRANO TSNO
PATQ 092319Z AUTO 04015KT 4SM -SN BR SCT029 OVC040 M18/M20 A3013 RMK AO2 P0000 FZRANO TSNO
PATQ 092309Z AUTO 04015KT 5SM -SN BR BKN029 BKN036 M18/M20 A3013 RMK AO2 P0000 FZRANO TSNO
PATQ 092256Z AUTO 04014KT 5SM -SN BR FEW029 SCT090 M18/M21 A3013 RMK AO2 SLP210 P0000 T11831206 FZRANO TSNO
PATQ 092156Z AUTO 03014KT 7SM -SN FEW060 M19/M21 A3013 RMK AO2 SLP211 P0000 T11891211 FZRANO TSNO
PATQ 092056Z AUTO 03014KT 8SM -SN FEW030 OVC060 M19/M21 A3012 RMK AO2 SLP208 P0000 60000 T11891211 51009 FZRANO TSNO
PATQ 091956Z AUTO 04013KT 6SM -SN BR CLR M19/M21 A3012 RMK AO2 SLP205 P0000 T11891211 FZRANO TSNO
PATQ 091939Z AUTO 04012KT 5SM -SN BR SCT024 M19/M21 A3011 RMK AO2 P0000 FZRANO TSNO
PATQ 091909Z AUTO 04014KT 4SM -SN BR SCT018 OVC026 M19/M21 A3010 RMK AO2 P0000 FZRANO TSNO
PATQ 091856Z AUTO 04013KT 2SM -SN BR BKN015 OVC020 M19/M21 A3011 RMK AO2 SNB1757 SLP203 P0000 T11891211 FZRANO TSNO
PATQ 091833Z AUTO 04013KT 1 1/2SM -SN BR BKN015 BKN022 OVC028 M19/M21 A3011 RMK AO2 SNB1757 P0000 FZRANO TSNO
PATQ 091821Z AUTO 04013KT 2 1/2SM -SN BR FEW017 BKN021 OVC038 M19/M21 A3010 RMK AO2 SNB1757 P0000 FZRANO TSNO
PATQ 091756Z AUTO 04014KT 9SM BKN043 OVC050 M19/M21 A3010 RMK AO2 SLP199 T11891211 11189 21206 53003 FZRANO TSNO
PATQ 091656Z AUTO 03014KT 9SM FEW090 M19/M22 A3009 RMK AO2 SLP195 T11941217 FZRANO TSNO
PATQ 091556Z AUTO 03012KT 10SM CLR M20/M22 A3009 RMK AO2 SLP198 T12001217 FZRANO TSNO
PATQ 091456Z AUTO 03013KT 10SM CLR M21/M22 A3009 RMK AO2 SLP196 T12061222 52008 FZRANO TSNO
PATQ 091356Z AUTO 03012KT 10SM CLR M21/M22 A3008 RMK AO2 SLP193 T12061222 FZRANO TSNO
PATQ 091256Z AUTO 02013KT 10SM CLR M20/M22 A3007 RMK AO2 SLP191 T12001222 FZRANO TSNO